sensor_id;sensor_type;location;lat;lon;timestamp;P1;durP1;ratioP1;P2;durP2;ratioP2
78296;SDS011;67555;47.660;19.622;2024-03-22T00:01:50;43.80;;;20.25;;
78296;SDS011;67555;47.660;19.622;2024-03-22T00:04:17;38.88;;;18.92;;
78296;SDS011;67555;47.660;19.622;2024-03-22T00:06:43;37.58;;;17.85;;
78296;SDS011;67555;47.660;19.622;2024-03-22T00:09:10;35.38;;;18.55;;
78296;SDS011;67555;47.660;19.622;2024-03-22T00:11:36;34.17;;;16.25;;
78296;SDS011;67555;47.660;19.622;2024-03-22T00:14:04;36.90;;;15.88;;
78296;SDS011;67555;47.660;19.622;2024-03-22T00:16:30;34.60;;;15.57;;
78296;SDS011;67555;47.660;19.622;2024-03-22T00:18:55;32.72;;;15.98;;
78296;SDS011;67555;47.660;19.622;2024-03-22T00:21:21;29.95;;;16.20;;
78296;SDS011;67555;47.660;19.622;2024-03-22T00:23:47;37.00;;;15.77;;
78296;SDS011;67555;47.660;19.622;2024-03-22T00:26:13;36.75;;;16.10;;
78296;SDS011;67555;47.660;19.622;2024-03-22T00:28:39;37.15;;;16.58;;
78296;SDS011;67555;47.660;19.622;2024-03-22T00:31:04;32.10;;;16.77;;
78296;SDS011;67555;47.660;19.622;2024-03-22T00:33:30;34.05;;;17.70;;
78296;SDS011;67555;47.660;19.622;2024-03-22T00:35:56;31.25;;;15.75;;
78296;SDS011;67555;47.660;19.622;2024-03-22T00:38:22;36.95;;;17.58;;
78296;SDS011;67555;47.660;19.622;2024-03-22T00:40:48;39.65;;;17.02;;
78296;SDS011;67555;47.660;19.622;2024-03-22T00:43:14;38.45;;;18.33;;
78296;SDS011;67555;47.660;19.622;2024-03-22T00:45:40;31.02;;;14.50;;
78296;SDS011;67555;47.660;19.622;2024-03-22T00:48:06;30.48;;;16.48;;
78296;SDS011;67555;47.660;19.622;2024-03-22T00:50:31;34.85;;;16.60;;
78296;SDS011;67555;47.660;19.622;2024-03-22T00:52:57;30.02;;;13.63;;
78296;SDS011;67555;47.660;19.622;2024-03-22T00:55:23;32.50;;;13.75;;
78296;SDS011;67555;47.660;19.622;2024-03-22T00:57:49;26.35;;;12.25;;
78296;SDS011;67555;47.660;19.622;2024-03-22T01:00:15;28.70;;;14.23;;
78296;SDS011;67555;47.660;19.622;2024-03-22T01:02:43;37.50;;;14.98;;
78296;SDS011;67555;47.660;19.622;2024-03-22T01:05:09;30.70;;;14.95;;
78296;SDS011;67555;47.660;19.622;2024-03-22T01:07:35;27.02;;;13.80;;
78296;SDS011;67555;47.660;19.622;2024-03-22T01:10:02;26.75;;;13.85;;
78296;SDS011;67555;47.660;19.622;2024-03-22T01:12:30;28.15;;;13.23;;
78296;SDS011;67555;47.660;19.622;2024-03-22T01:14:56;29.13;;;14.63;;
78296;SDS011;67555;47.660;19.622;2024-03-22T01:17:23;26.70;;;12.55;;
78296;SDS011;67555;47.660;19.622;2024-03-22T01:19:49;26.65;;;13.85;;
78296;SDS011;67555;47.660;19.622;2024-03-22T01:22:15;30.58;;;12.93;;
78296;SDS011;67555;47.660;19.622;2024-03-22T01:24:41;21.58;;;11.90;;
78296;SDS011;67555;47.660;19.622;2024-03-22T01:27:07;26.15;;;12.73;;
78296;SDS011;67555;47.660;19.622;2024-03-22T01:29:33;22.67;;;11.77;;
78296;SDS011;67555;47.660;19.622;2024-03-22T01:31:58;27.27;;;12.60;;
78296;SDS011;67555;47.660;19.622;2024-03-22T01:34:24;19.92;;;11.68;;
78296;SDS011;67555;47.660;19.622;2024-03-22T01:36:51;22.40;;;11.35;;
78296;SDS011;67555;47.660;19.622;2024-03-22T01:39:18;27.15;;;12.55;;
78296;SDS011;67555;47.660;19.622;2024-03-22T01:41:46;26.95;;;12.60;;
78296;SDS011;67555;47.660;19.622;2024-03-22T01:46:41;23.60;;;12.20;;
78296;SDS011;67555;47.660;19.622;2024-03-22T01:49:11;25.52;;;11.50;;
78296;SDS011;67555;47.660;19.622;2024-03-22T01:51:41;31.88;;;13.98;;
78296;SDS011;67555;47.660;19.622;2024-03-22T01:54:08;26.10;;;13.45;;
78296;SDS011;67555;47.660;19.622;2024-03-22T01:56:38;26.45;;;12.73;;
78296;SDS011;67555;47.660;19.622;2024-03-22T01:59:04;21.88;;;10.90;;
78296;SDS011;67555;47.660;19.622;2024-03-22T02:01:31;28.98;;;11.68;;
78296;SDS011;67555;47.660;19.622;2024-03-22T02:03:57;26.88;;;13.05;;
78296;SDS011;67555;47.660;19.622;2024-03-22T02:06:22;27.98;;;13.23;;
78296;SDS011;67555;47.660;19.622;2024-03-22T02:08:48;23.15;;;11.07;;
78296;SDS011;67555;47.660;19.622;2024-03-22T02:11:14;24.67;;;11.07;;
78296;SDS011;67555;47.660;19.622;2024-03-22T02:13:40;19.33;;;10.65;;
78296;SDS011;67555;47.660;19.622;2024-03-22T02:16:06;27.33;;;11.10;;
78296;SDS011;67555;47.660;19.622;2024-03-22T02:18:31;26.10;;;12.32;;
78296;SDS011;67555;47.660;19.622;2024-03-22T02:20:57;27.15;;;12.15;;
78296;SDS011;67555;47.660;19.622;2024-03-22T02:23:33;24.67;;;11.70;;
78296;SDS011;67555;47.660;19.622;2024-03-22T02:26:03;34.08;;;13.80;;
78296;SDS011;67555;47.660;19.622;2024-03-22T02:28:29;20.80;;;11.70;;
78296;SDS011;67555;47.660;19.622;2024-03-22T02:30:57;22.15;;;12.05;;
78296;SDS011;67555;47.660;19.622;2024-03-22T02:33:23;27.55;;;12.32;;
78296;SDS011;67555;47.660;19.622;2024-03-22T02:35:50;23.52;;;12.27;;
78296;SDS011;67555;47.660;19.622;2024-03-22T02:38:16;23.50;;;12.25;;
78296;SDS011;67555;47.660;19.622;2024-03-22T02:40:43;25.30;;;11.88;;
78296;SDS011;67555;47.660;19.622;2024-03-22T02:43:09;25.45;;;12.52;;
78296;SDS011;67555;47.660;19.622;2024-03-22T02:45:35;26.98;;;12.75;;
78296;SDS011;67555;47.660;19.622;2024-03-22T02:48:01;30.98;;;14.32;;
78296;SDS011;67555;47.660;19.622;2024-03-22T02:50:27;24.70;;;13.48;;
78296;SDS011;67555;47.660;19.622;2024-03-22T02:52:52;31.25;;;12.63;;
78296;SDS011;67555;47.660;19.622;2024-03-22T02:55:18;23.10;;;12.25;;
78296;SDS011;67555;47.660;19.622;2024-03-22T02:57:44;22.40;;;11.15;;
78296;SDS011;67555;47.660;19.622;2024-03-22T03:00:10;23.95;;;11.82;;
78296;SDS011;67555;47.660;19.622;2024-03-22T03:02:36;31.58;;;12.10;;
78296;SDS011;67555;47.660;19.622;2024-03-22T03:05:01;22.05;;;11.65;;
78296;SDS011;67555;47.660;19.622;2024-03-22T03:07:27;21.92;;;11.35;;
78296;SDS011;67555;47.660;19.622;2024-03-22T03:09:53;31.15;;;12.32;;
78296;SDS011;67555;47.660;19.622;2024-03-22T03:12:19;28.45;;;11.38;;
78296;SDS011;67555;47.660;19.622;2024-03-22T03:14:45;30.52;;;10.25;;
78296;SDS011;67555;47.660;19.622;2024-03-22T03:17:10;19.88;;;11.23;;
78296;SDS011;67555;47.660;19.622;2024-03-22T03:19:36;22.90;;;11.52;;
78296;SDS011;67555;47.660;19.622;2024-03-22T03:22:02;25.15;;;12.00;;
78296;SDS011;67555;47.660;19.622;2024-03-22T03:24:28;21.67;;;12.00;;
78296;SDS011;67555;47.660;19.622;2024-03-22T03:26:54;25.38;;;11.15;;
78296;SDS011;67555;47.660;19.622;2024-03-22T03:29:19;23.52;;;11.63;;
78296;SDS011;67555;47.660;19.622;2024-03-22T03:31:45;21.50;;;10.98;;
78296;SDS011;67555;47.660;19.622;2024-03-22T03:34:11;25.90;;;12.45;;
78296;SDS011;67555;47.660;19.622;2024-03-22T03:36:36;22.58;;;12.10;;
78296;SDS011;67555;47.660;19.622;2024-03-22T03:39:02;26.17;;;11.10;;
78296;SDS011;67555;47.660;19.622;2024-03-22T03:41:29;24.90;;;10.73;;
78296;SDS011;67555;47.660;19.622;2024-03-22T03:43:54;20.98;;;10.80;;
78296;SDS011;67555;47.660;19.622;2024-03-22T03:46:20;25.45;;;11.05;;
78296;SDS011;67555;47.660;19.622;2024-03-22T03:48:46;20.35;;;10.55;;
78296;SDS011;67555;47.660;19.622;2024-03-22T03:51:12;21.92;;;11.85;;
78296;SDS011;67555;47.660;19.622;2024-03-22T03:53:37;21.17;;;11.18;;
78296;SDS011;67555;47.660;19.622;2024-03-22T03:56:03;23.70;;;11.52;;
78296;SDS011;67555;47.660;19.622;2024-03-22T03:58:29;23.75;;;11.10;;
78296;SDS011;67555;47.660;19.622;2024-03-22T04:00:54;25.42;;;12.35;;
78296;SDS011;67555;47.660;19.622;2024-03-22T04:03:22;24.42;;;10.68;;
78296;SDS011;67555;47.660;19.622;2024-03-22T04:05:58;23.65;;;12.20;;
78296;SDS011;67555;47.660;19.622;2024-03-22T04:08:27;26.75;;;11.80;;
78296;SDS011;67555;47.660;19.622;2024-03-22T04:10:55;21.65;;;11.18;;
78296;SDS011;67555;47.660;19.622;2024-03-22T04:13:22;26.73;;;11.40;;
78296;SDS011;67555;47.660;19.622;2024-03-22T04:15:48;23.42;;;11.35;;
78296;SDS011;67555;47.660;19.622;2024-03-22T04:18:14;26.23;;;12.45;;
78296;SDS011;67555;47.660;19.622;2024-03-22T04:20:39;20.65;;;11.00;;
78296;SDS011;67555;47.660;19.622;2024-03-22T04:23:05;24.23;;;10.77;;
78296;SDS011;67555;47.660;19.622;2024-03-22T04:25:31;26.35;;;11.05;;
78296;SDS011;67555;47.660;19.622;2024-03-22T04:27:56;26.10;;;11.57;;
78296;SDS011;67555;47.660;19.622;2024-03-22T04:30:22;16.33;;;9.73;;
78296;SDS011;67555;47.660;19.622;2024-03-22T04:32:48;16.77;;;9.45;;
78296;SDS011;67555;47.660;19.622;2024-03-22T04:35:13;21.35;;;10.05;;
78296;SDS011;67555;47.660;19.622;2024-03-22T04:37:39;23.00;;;10.25;;
78296;SDS011;67555;47.660;19.622;2024-03-22T04:40:05;23.67;;;10.70;;
78296;SDS011;67555;47.660;19.622;2024-03-22T04:42:31;18.45;;;9.93;;
78296;SDS011;67555;47.660;19.622;2024-03-22T04:44:57;20.42;;;9.40;;
78296;SDS011;67555;47.660;19.622;2024-03-22T04:47:23;19.17;;;9.95;;
78296;SDS011;67555;47.660;19.622;2024-03-22T04:49:48;22.15;;;11.20;;
78296;SDS011;67555;47.660;19.622;2024-03-22T04:52:14;17.70;;;10.30;;
78296;SDS011;67555;47.660;19.622;2024-03-22T04:54:40;19.38;;;9.13;;
78296;SDS011;67555;47.660;19.622;2024-03-22T04:57:06;19.42;;;10.25;;
78296;SDS011;67555;47.660;19.622;2024-03-22T04:59:31;17.90;;;9.55;;
78296;SDS011;67555;47.660;19.622;2024-03-22T05:01:57;17.60;;;9.32;;
78296;SDS011;67555;47.660;19.622;2024-03-22T05:04:23;20.92;;;9.80;;
78296;SDS011;67555;47.660;19.622;2024-03-22T05:06:49;19.73;;;9.93;;
78296;SDS011;67555;47.660;19.622;2024-03-22T05:09:14;19.40;;;10.20;;
78296;SDS011;67555;47.660;19.622;2024-03-22T05:11:40;19.77;;;10.55;;
78296;SDS011;67555;47.660;19.622;2024-03-22T05:14:06;26.75;;;11.70;;
78296;SDS011;67555;47.660;19.622;2024-03-22T05:16:32;21.48;;;10.50;;
78296;SDS011;67555;47.660;19.622;2024-03-22T05:18:58;24.85;;;10.38;;
78296;SDS011;67555;47.660;19.622;2024-03-22T05:21:24;24.75;;;11.20;;
78296;SDS011;67555;47.660;19.622;2024-03-22T05:23:49;23.50;;;10.00;;
78296;SDS011;67555;47.660;19.622;2024-03-22T05:26:15;27.10;;;11.57;;
78296;SDS011;67555;47.660;19.622;2024-03-22T05:28:41;22.83;;;11.27;;
78296;SDS011;67555;47.660;19.622;2024-03-22T05:31:07;24.52;;;10.88;;
78296;SDS011;67555;47.660;19.622;2024-03-22T05:33:33;26.80;;;11.30;;
78296;SDS011;67555;47.660;19.622;2024-03-22T05:35:58;22.10;;;10.07;;
78296;SDS011;67555;47.660;19.622;2024-03-22T05:38:24;23.42;;;11.18;;
78296;SDS011;67555;47.660;19.622;2024-03-22T05:40:50;22.58;;;11.70;;
78296;SDS011;67555;47.660;19.622;2024-03-22T05:43:15;26.33;;;11.27;;
78296;SDS011;67555;47.660;19.622;2024-03-22T05:45:41;27.15;;;11.18;;
78296;SDS011;67555;47.660;19.622;2024-03-22T05:48:07;23.55;;;11.95;;
78296;SDS011;67555;47.660;19.622;2024-03-22T05:50:33;27.35;;;12.48;;
78296;SDS011;67555;47.660;19.622;2024-03-22T05:52:58;22.48;;;12.10;;
78296;SDS011;67555;47.660;19.622;2024-03-22T05:55:24;32.13;;;14.35;;
78296;SDS011;67555;47.660;19.622;2024-03-22T05:57:52;26.48;;;12.63;;
78296;SDS011;67555;47.660;19.622;2024-03-22T06:00:18;36.20;;;13.40;;
78296;SDS011;67555;47.660;19.622;2024-03-22T06:02:43;28.05;;;12.75;;
78296;SDS011;67555;47.660;19.622;2024-03-22T06:05:09;25.75;;;12.90;;
78296;SDS011;67555;47.660;19.622;2024-03-22T06:07:35;26.00;;;12.60;;
78296;SDS011;67555;47.660;19.622;2024-03-22T06:10:07;26.15;;;12.85;;
78296;SDS011;67555;47.660;19.622;2024-03-22T06:12:34;27.75;;;14.15;;
78296;SDS011;67555;47.660;19.622;2024-03-22T06:15:01;25.95;;;11.93;;
78296;SDS011;67555;47.660;19.622;2024-03-22T06:17:31;22.50;;;11.85;;
78296;SDS011;67555;47.660;19.622;2024-03-22T06:19:58;23.98;;;12.88;;
78296;SDS011;67555;47.660;19.622;2024-03-22T06:22:24;29.10;;;13.10;;
78296;SDS011;67555;47.660;19.622;2024-03-22T06:24:50;27.08;;;12.93;;
78296;SDS011;67555;47.660;19.622;2024-03-22T06:27:16;30.73;;;13.43;;
78296;SDS011;67555;47.660;19.622;2024-03-22T06:29:42;31.83;;;13.75;;
78296;SDS011;67555;47.660;19.622;2024-03-22T06:32:08;32.53;;;14.32;;
78296;SDS011;67555;47.660;19.622;2024-03-22T06:34:33;34.13;;;15.25;;
78296;SDS011;67555;47.660;19.622;2024-03-22T06:36:59;31.50;;;16.13;;
78296;SDS011;67555;47.660;19.622;2024-03-22T06:39:25;35.50;;;17.08;;
78296;SDS011;67555;47.660;19.622;2024-03-22T06:41:51;32.85;;;15.10;;
78296;SDS011;67555;47.660;19.622;2024-03-22T06:44:16;27.38;;;14.27;;
78296;SDS011;67555;47.660;19.622;2024-03-22T06:46:42;35.47;;;15.80;;
78296;SDS011;67555;47.660;19.622;2024-03-22T06:49:08;24.85;;;14.07;;
78296;SDS011;67555;47.660;19.622;2024-03-22T06:51:33;37.22;;;15.93;;
78296;SDS011;67555;47.660;19.622;2024-03-22T06:53:59;33.08;;;15.65;;
78296;SDS011;67555;47.660;19.622;2024-03-22T06:56:25;29.17;;;14.85;;
78296;SDS011;67555;47.660;19.622;2024-03-22T06:58:51;34.70;;;15.65;;
78296;SDS011;67555;47.660;19.622;2024-03-22T07:01:16;29.00;;;13.63;;
78296;SDS011;67555;47.660;19.622;2024-03-22T07:03:42;30.63;;;14.07;;
78296;SDS011;67555;47.660;19.622;2024-03-22T07:06:10;30.20;;;15.45;;
78296;SDS011;67555;47.660;19.622;2024-03-22T07:08:37;31.40;;;14.93;;
78296;SDS011;67555;47.660;19.622;2024-03-22T07:11:06;29.38;;;13.68;;
78296;SDS011;67555;47.660;19.622;2024-03-22T07:13:33;27.88;;;15.55;;
78296;SDS011;67555;47.660;19.622;2024-03-22T07:15:59;39.67;;;18.83;;
78296;SDS011;67555;47.660;19.622;2024-03-22T07:18:25;33.33;;;17.08;;
78296;SDS011;67555;47.660;19.622;2024-03-22T07:20:51;31.98;;;15.75;;
78296;SDS011;67555;47.660;19.622;2024-03-22T07:23:17;33.03;;;17.02;;
78296;SDS011;67555;47.660;19.622;2024-03-22T07:25:42;35.30;;;16.67;;
78296;SDS011;67555;47.660;19.622;2024-03-22T07:28:10;39.10;;;19.65;;
78296;SDS011;67555;47.660;19.622;2024-03-22T07:30:36;34.35;;;17.73;;
78296;SDS011;67555;47.660;19.622;2024-03-22T07:33:02;33.45;;;17.00;;
78296;SDS011;67555;47.660;19.622;2024-03-22T07:35:29;37.33;;;16.90;;
78296;SDS011;67555;47.660;19.622;2024-03-22T07:37:54;30.95;;;16.05;;
78296;SDS011;67555;47.660;19.622;2024-03-22T07:40:21;30.15;;;14.35;;
78296;SDS011;67555;47.660;19.622;2024-03-22T07:42:47;27.70;;;14.57;;
78296;SDS011;67555;47.660;19.622;2024-03-22T07:45:13;27.00;;;13.95;;
78296;SDS011;67555;47.660;19.622;2024-03-22T07:47:39;27.90;;;12.93;;
78296;SDS011;67555;47.660;19.622;2024-03-22T07:50:07;30.08;;;11.60;;
78296;SDS011;67555;47.660;19.622;2024-03-22T07:52:33;33.70;;;13.20;;
78296;SDS011;67555;47.660;19.622;2024-03-22T07:54:59;21.05;;;11.88;;
78296;SDS011;67555;47.660;19.622;2024-03-22T07:57:27;28.38;;;12.60;;
78296;SDS011;67555;47.660;19.622;2024-03-22T07:59:56;17.95;;;10.40;;
78296;SDS011;67555;47.660;19.622;2024-03-22T08:04:50;20.40;;;10.07;;
78296;SDS011;67555;47.660;19.622;2024-03-22T08:07:15;26.52;;;10.57;;
78296;SDS011;67555;47.660;19.622;2024-03-22T08:09:41;28.33;;;10.20;;
78296;SDS011;67555;47.660;19.622;2024-03-22T08:12:07;24.42;;;12.02;;
78296;SDS011;67555;47.660;19.622;2024-03-22T08:14:32;24.45;;;10.20;;
78296;SDS011;67555;47.660;19.622;2024-03-22T08:16:58;36.50;;;12.85;;
78296;SDS011;67555;47.660;19.622;2024-03-22T08:19:24;22.85;;;11.07;;
78296;SDS011;67555;47.660;19.622;2024-03-22T08:21:49;18.50;;;9.73;;
78296;SDS011;67555;47.660;19.622;2024-03-22T08:24:15;21.70;;;11.30;;
78296;SDS011;67555;47.660;19.622;2024-03-22T08:26:42;21.63;;;10.02;;
78296;SDS011;67555;47.660;19.622;2024-03-22T08:29:10;28.00;;;11.38;;
78296;SDS011;67555;47.660;19.622;2024-03-22T08:31:36;19.80;;;10.35;;
78296;SDS011;67555;47.660;19.622;2024-03-22T08:34:02;21.30;;;10.73;;
78296;SDS011;67555;47.660;19.622;2024-03-22T08:36:30;25.05;;;11.68;;
78296;SDS011;67555;47.660;19.622;2024-03-22T08:38:56;20.98;;;11.18;;
78296;SDS011;67555;47.660;19.622;2024-03-22T08:41:21;21.17;;;10.88;;
78296;SDS011;67555;47.660;19.622;2024-03-22T08:43:48;22.90;;;10.90;;
78296;SDS011;67555;47.660;19.622;2024-03-22T08:46:13;18.13;;;10.70;;
78296;SDS011;67555;47.660;19.622;2024-03-22T08:48:39;20.27;;;10.80;;
78296;SDS011;67555;47.660;19.622;2024-03-22T08:51:05;22.50;;;12.18;;
78296;SDS011;67555;47.660;19.622;2024-03-22T08:53:30;27.40;;;10.57;;
78296;SDS011;67555;47.660;19.622;2024-03-22T08:55:56;21.52;;;11.13;;
78296;SDS011;67555;47.660;19.622;2024-03-22T08:58:22;22.92;;;11.80;;
78296;SDS011;67555;47.660;19.622;2024-03-22T09:00:47;23.77;;;11.98;;
78296;SDS011;67555;47.660;19.622;2024-03-22T09:03:13;22.48;;;11.80;;
78296;SDS011;67555;47.660;19.622;2024-03-22T09:05:40;18.45;;;10.32;;
78296;SDS011;67555;47.660;19.622;2024-03-22T09:08:06;19.20;;;10.77;;
78296;SDS011;67555;47.660;19.622;2024-03-22T09:10:32;23.48;;;11.30;;
78296;SDS011;67555;47.660;19.622;2024-03-22T09:12:57;19.90;;;10.63;;
78296;SDS011;67555;47.660;19.622;2024-03-22T09:15:23;22.20;;;11.20;;
78296;SDS011;67555;47.660;19.622;2024-03-22T09:17:49;20.25;;;9.82;;
78296;SDS011;67555;47.660;19.622;2024-03-22T09:20:16;20.58;;;10.38;;
78296;SDS011;67555;47.660;19.622;2024-03-22T09:22:42;21.95;;;10.48;;
78296;SDS011;67555;47.660;19.622;2024-03-22T09:25:07;21.92;;;9.77;;
78296;SDS011;67555;47.660;19.622;2024-03-22T09:27:33;25.30;;;12.60;;
78296;SDS011;67555;47.660;19.622;2024-03-22T09:29:59;24.27;;;12.02;;
78296;SDS011;67555;47.660;19.622;2024-03-22T09:32:26;22.75;;;12.32;;
78296;SDS011;67555;47.660;19.622;2024-03-22T09:34:52;22.50;;;11.65;;
78296;SDS011;67555;47.660;19.622;2024-03-22T09:37:17;25.63;;;12.30;;
78296;SDS011;67555;47.660;19.622;2024-03-22T09:39:43;23.42;;;11.73;;
78296;SDS011;67555;47.660;19.622;2024-03-22T09:42:09;26.85;;;12.50;;
78296;SDS011;67555;47.660;19.622;2024-03-22T09:44:41;25.52;;;12.57;;
78296;SDS011;67555;47.660;19.622;2024-03-22T09:47:12;20.95;;;11.25;;
78296;SDS011;67555;47.660;19.622;2024-03-22T09:49:43;24.60;;;12.27;;
78296;SDS011;67555;47.660;19.622;2024-03-22T09:52:13;23.17;;;12.30;;
78296;SDS011;67555;47.660;19.622;2024-03-22T09:54:42;18.60;;;10.68;;
78296;SDS011;67555;47.660;19.622;2024-03-22T09:57:09;20.52;;;11.45;;
78296;SDS011;67555;47.660;19.622;2024-03-22T09:59:46;20.83;;;10.20;;
78296;SDS011;67555;47.660;19.622;2024-03-22T10:04:38;22.25;;;10.90;;
78296;SDS011;67555;47.660;19.622;2024-03-22T10:07:07;17.70;;;9.90;;
78296;SDS011;67555;47.660;19.622;2024-03-22T10:09:34;18.15;;;9.77;;
78296;SDS011;67555;47.660;19.622;2024-03-22T10:12:00;17.55;;;9.82;;
78296;SDS011;67555;47.660;19.622;2024-03-22T10:14:26;19.77;;;9.45;;
78296;SDS011;67555;47.660;19.622;2024-03-22T10:16:52;26.52;;;10.30;;
78296;SDS011;67555;47.660;19.622;2024-03-22T10:19:22;16.38;;;9.60;;
78296;SDS011;67555;47.660;19.622;2024-03-22T10:22:01;23.25;;;10.00;;
78296;SDS011;67555;47.660;19.622;2024-03-22T10:24:33;21.27;;;10.55;;
78296;SDS011;67555;47.660;19.622;2024-03-22T10:26:59;19.48;;;10.85;;
78296;SDS011;67555;47.660;19.622;2024-03-22T10:29:24;18.67;;;10.50;;
78296;SDS011;67555;47.660;19.622;2024-03-22T10:31:54;19.65;;;10.55;;
78296;SDS011;67555;47.660;19.622;2024-03-22T10:34:20;21.38;;;11.18;;
78296;SDS011;67555;47.660;19.622;2024-03-22T10:36:47;21.25;;;10.13;;
78296;SDS011;67555;47.660;19.622;2024-03-22T10:39:15;17.13;;;9.85;;
78296;SDS011;67555;47.660;19.622;2024-03-22T10:41:46;18.58;;;10.10;;
78296;SDS011;67555;47.660;19.622;2024-03-22T10:44:13;19.10;;;10.68;;
78296;SDS011;67555;47.660;19.622;2024-03-22T10:46:42;18.08;;;9.55;;
78296;SDS011;67555;47.660;19.622;2024-03-22T10:49:17;15.85;;;10.00;;
78296;SDS011;67555;47.660;19.622;2024-03-22T10:51:54;21.90;;;10.82;;
78296;SDS011;67555;47.660;19.622;2024-03-22T10:54:28;18.80;;;9.57;;
78296;SDS011;67555;47.660;19.622;2024-03-22T10:56:58;12.43;;;8.10;;
78296;SDS011;67555;47.660;19.622;2024-03-22T10:59:25;16.55;;;9.25;;
78296;SDS011;67555;47.660;19.622;2024-03-22T11:01:50;20.27;;;8.57;;
78296;SDS011;67555;47.660;19.622;2024-03-22T11:04:17;15.68;;;9.45;;
78296;SDS011;67555;47.660;19.622;2024-03-22T11:06:49;15.52;;;9.60;;
78296;SDS011;67555;47.660;19.622;2024-03-22T11:09:22;13.23;;;8.00;;
78296;SDS011;67555;47.660;19.622;2024-03-22T11:11:48;16.17;;;8.48;;
78296;SDS011;67555;47.660;19.622;2024-03-22T11:14:17;14.43;;;8.40;;
78296;SDS011;67555;47.660;19.622;2024-03-22T11:16:46;14.10;;;8.32;;
78296;SDS011;67555;47.660;19.622;2024-03-22T11:19:12;12.73;;;7.57;;
78296;SDS011;67555;47.660;19.622;2024-03-22T11:21:38;10.02;;;6.55;;
78296;SDS011;67555;47.660;19.622;2024-03-22T11:24:04;16.52;;;7.25;;
78296;SDS011;67555;47.660;19.622;2024-03-22T11:26:31;15.90;;;7.03;;
78296;SDS011;67555;47.660;19.622;2024-03-22T11:28:58;11.57;;;6.88;;
78296;SDS011;67555;47.660;19.622;2024-03-22T11:31:24;12.18;;;6.50;;
78296;SDS011;67555;47.660;19.622;2024-03-22T11:36:18;15.55;;;8.38;;
78296;SDS011;67555;47.660;19.622;2024-03-22T11:38:44;15.90;;;8.68;;
78296;SDS011;67555;47.660;19.622;2024-03-22T11:41:09;22.25;;;8.98;;
78296;SDS011;67555;47.660;19.622;2024-03-22T11:43:36;16.33;;;8.48;;
78296;SDS011;67555;47.660;19.622;2024-03-22T11:46:02;17.35;;;8.25;;
78296;SDS011;67555;47.660;19.622;2024-03-22T11:48:28;15.00;;;7.47;;
78296;SDS011;67555;47.660;19.622;2024-03-22T11:50:54;13.77;;;8.02;;
78296;SDS011;67555;47.660;19.622;2024-03-22T11:53:21;17.67;;;8.48;;
78296;SDS011;67555;47.660;19.622;2024-03-22T11:55:48;15.60;;;8.45;;
78296;SDS011;67555;47.660;19.622;2024-03-22T11:58:14;13.70;;;8.10;;
78296;SDS011;67555;47.660;19.622;2024-03-22T12:00:41;12.85;;;7.43;;
78296;SDS011;67555;47.660;19.622;2024-03-22T12:03:07;10.02;;;6.28;;
78296;SDS011;67555;47.660;19.622;2024-03-22T12:05:34;15.68;;;8.40;;
78296;SDS011;67555;47.660;19.622;2024-03-22T12:07:59;17.10;;;8.20;;
78296;SDS011;67555;47.660;19.622;2024-03-22T12:10:25;12.95;;;7.80;;
78296;SDS011;67555;47.660;19.622;2024-03-22T12:12:51;13.02;;;7.72;;
78296;SDS011;67555;47.660;19.622;2024-03-22T12:15:18;10.80;;;6.80;;
78296;SDS011;67555;47.660;19.622;2024-03-22T12:17:44;9.63;;;6.30;;
78296;SDS011;67555;47.660;19.622;2024-03-22T12:20:10;12.82;;;7.68;;
78296;SDS011;67555;47.660;19.622;2024-03-22T12:22:35;12.27;;;6.65;;
78296;SDS011;67555;47.660;19.622;2024-03-22T12:25:01;12.43;;;7.50;;
78296;SDS011;67555;47.660;19.622;2024-03-22T12:27:29;22.60;;;8.20;;
78296;SDS011;67555;47.660;19.622;2024-03-22T12:29:55;11.63;;;7.43;;
78296;SDS011;67555;47.660;19.622;2024-03-22T12:32:21;15.25;;;7.68;;
78296;SDS011;67555;47.660;19.622;2024-03-22T12:34:46;14.27;;;7.30;;
78296;SDS011;67555;47.660;19.622;2024-03-22T12:37:12;13.88;;;7.30;;
78296;SDS011;67555;47.660;19.622;2024-03-22T12:39:39;15.70;;;7.97;;
78296;SDS011;67555;47.660;19.622;2024-03-22T12:42:05;14.80;;;7.97;;
78296;SDS011;67555;47.660;19.622;2024-03-22T12:44:31;13.25;;;7.68;;
78296;SDS011;67555;47.660;19.622;2024-03-22T12:46:56;13.10;;;7.80;;
78296;SDS011;67555;47.660;19.622;2024-03-22T12:49:22;13.98;;;7.97;;
78296;SDS011;67555;47.660;19.622;2024-03-22T12:51:48;17.30;;;8.00;;
78296;SDS011;67555;47.660;19.622;2024-03-22T12:54:14;11.90;;;7.03;;
78296;SDS011;67555;47.660;19.622;2024-03-22T12:56:43;17.40;;;7.88;;
78296;SDS011;67555;47.660;19.622;2024-03-22T12:59:09;13.13;;;7.68;;
78296;SDS011;67555;47.660;19.622;2024-03-22T13:01:35;12.15;;;7.60;;
78296;SDS011;67555;47.660;19.622;2024-03-22T13:04:02;11.05;;;8.32;;
78296;SDS011;67555;47.660;19.622;2024-03-22T13:06:27;15.18;;;9.40;;
78296;SDS011;67555;47.660;19.622;2024-03-22T13:08:53;16.00;;;9.00;;
78296;SDS011;67555;47.660;19.622;2024-03-22T13:11:19;15.00;;;8.13;;
78296;SDS011;67555;47.660;19.622;2024-03-22T13:13:44;13.68;;;7.60;;
78296;SDS011;67555;47.660;19.622;2024-03-22T13:16:10;15.30;;;7.43;;
78296;SDS011;67555;47.660;19.622;2024-03-22T13:18:39;17.23;;;8.52;;
78296;SDS011;67555;47.660;19.622;2024-03-22T13:21:05;14.43;;;7.63;;
78296;SDS011;67555;47.660;19.622;2024-03-22T13:23:31;14.05;;;7.55;;
78296;SDS011;67555;47.660;19.622;2024-03-22T13:26:01;14.75;;;7.85;;
78296;SDS011;67555;47.660;19.622;2024-03-22T13:28:31;12.73;;;7.28;;
78296;SDS011;67555;47.660;19.622;2024-03-22T13:31:01;13.88;;;7.20;;
78296;SDS011;67555;47.660;19.622;2024-03-22T13:33:28;11.65;;;6.72;;
78296;SDS011;67555;47.660;19.622;2024-03-22T13:35:57;14.80;;;7.68;;
78296;SDS011;67555;47.660;19.622;2024-03-22T13:38:23;11.20;;;6.63;;
78296;SDS011;67555;47.660;19.622;2024-03-22T13:40:52;12.77;;;8.07;;
78296;SDS011;67555;47.660;19.622;2024-03-22T13:43:22;12.00;;;7.18;;
78296;SDS011;67555;47.660;19.622;2024-03-22T13:45:51;14.52;;;7.60;;
78296;SDS011;67555;47.660;19.622;2024-03-22T13:48:23;10.95;;;4.72;;
78296;SDS011;67555;47.660;19.622;2024-03-22T13:50:50;41.40;;;16.95;;
78296;SDS011;67555;47.660;19.622;2024-03-22T13:53:17;14.68;;;8.18;;
78296;SDS011;67555;47.660;19.622;2024-03-22T13:55:43;18.13;;;9.55;;
78296;SDS011;67555;47.660;19.622;2024-03-22T13:58:09;13.13;;;7.43;;
78296;SDS011;67555;47.660;19.622;2024-03-22T14:00:35;14.15;;;7.88;;
78296;SDS011;67555;47.660;19.622;2024-03-22T14:03:01;19.90;;;9.02;;
78296;SDS011;67555;47.660;19.622;2024-03-22T14:05:27;14.90;;;9.45;;
78296;SDS011;67555;47.660;19.622;2024-03-22T14:07:52;14.13;;;8.88;;
78296;SDS011;67555;47.660;19.622;2024-03-22T14:10:18;12.65;;;7.57;;
78296;SDS011;67555;47.660;19.622;2024-03-22T14:12:45;16.48;;;7.15;;
78296;SDS011;67555;47.660;19.622;2024-03-22T14:15:12;14.52;;;7.82;;
78296;SDS011;67555;47.660;19.622;2024-03-22T14:17:38;13.13;;;7.25;;
78296;SDS011;67555;47.660;19.622;2024-03-22T14:20:04;14.82;;;7.30;;